Time,TemperatureF,DewpointF,PressureIn,WindDirection,WindDirectionDegrees,WindSpeedMPH,WindSpeedGustMPH,Humidity,HourlyPrecipIn,Conditions,Clouds,dailyrainin,SolarRadiationWatts/m^2,SoftwareType,DateUTC
2013-02-16 12:44:00,53.2,35.1,29.88,North,0,0.0,0.0,50,0.00,,SKC,0.00,0.00,VWS V14.01,2013-02-16 11:44:00,
2013-02-16 12:47:00,53.4,35.3,29.88,North,0,0.0,0.0,50,0.00,,SKC,0.00,0.00,VWS V14.01,2013-02-16 11:47:00,
2013-02-16 12:48:00,53.4,35.3,29.88,North,0,0.0,0.0,50,0.00,,SKC,0.00,0.00,VWS V14.01,2013-02-16 11:48:00,
2013-02-16 12:49:00,53.6,35.4,29.88,North,0,0.0,0.0,50,0.00,,SKC,0.00,0.00,VWS V14.01,2013-02-16 11:49:00,
2013-02-16 12:50:00,53.6,35.4,29.88,North,0,0.0,0.0,50,0.00,,SKC,0.00,0.00,VWS V14.01,2013-02-16 11:50:00,
2013-02-16 12:54:00,53.6,35.4,29.88,North,0,0.0,0.0,50,0.00,,SKC,0.00,0.00,VWS V14.01,2013-02-16 11:54:00,
2013-02-16 12:59:00,53.8,35.1,29.88,North,0,0.0,0.0,49,0.00,,SKC,0.00,0.00,VWS V14.01,2013-02-16 11:59:00,
2013-02-16 13:04:00,54.3,36.1,29.88,North,0,0.0,0.0,50,0.00,,SKC,0.00,0.00,VWS V14.01,2013-02-16 12:04:00,
2013-02-16 13:09:00,54.5,36.3,29.88,North,0,0.0,0.0,50,0.00,,SKC,0.00,0.00,VWS V14.01,2013-02-16 12:09:00,
2013-02-16 13:14:00,55.2,36.4,29.85,North,0,0.0,0.0,49,0.00,,SKC,0.00,0.00,VWS V14.01,2013-02-16 12:14:00,
2013-02-16 13:19:00,55.9,37.1,29.85,North,0,0.0,0.0,49,0.00,,SKC,0.00,0.00,VWS V14.01,2013-02-16 12:19:00,
2013-02-16 13:24:00,55.9,37.1,29.85,North,0,0.0,0.0,49,0.00,,SKC,0.00,0.00,VWS V14.01,2013-02-16 12:24:00,
2013-02-16 13:29:00,56.5,37.0,29.85,North,0,0.0,0.0,48,0.00,,SKC,0.00,0.00,VWS V14.01,2013-02-16 12:29:00,
2013-02-16 13:34:00,57.0,37.5,29.85,North,0,0.0,0.0,48,0.00,,SKC,0.00,0.00,VWS V14.01,2013-02-16 12:34:00,
2013-02-16 13:39:00,57.2,37.7,29.85,North,0,0.0,0.0,48,0.00,,SKC,0.00,0.00,VWS V14.01,2013-02-16 12:39:00,
2013-02-16 13:44:00,57.9,38.4,29.85,North,0,0.0,0.0,48,0.00,,SKC,0.00,0.00,VWS V14.01,2013-02-16 12:44:00,
2013-02-16 13:49:00,58.8,39.2,29.85,North,0,0.0,0.0,48,0.00,,SKC,0.00,0.00,VWS V14.01,2013-02-16 12:49:00,
2013-02-16 13:54:00,58.8,38.7,29.85,North,0,0.0,0.0,47,0.00,,SKC,0.00,0.00,VWS V14.01,2013-02-16 12:54:00,
2013-02-16 14:00:00,58.6,38.5,29.85,North,0,0.0,0.0,47,0.00,,SKC,0.00,0.00,VWS V14.01,2013-02-16 13:00:00,
2013-02-16 14:05:00,59.4,39.2,29.85,North,0,0.0,0.0,47,0.00,,SKC,0.00,0.00,VWS V14.01,2013-02-16 13:05:00,
2013-02-16 14:10:00,60.6,40.3,29.85,North,0,0.0,0.0,47,0.00,,SKC,0.00,0.00,VWS V14.01,2013-02-16 13:10:00,
2013-02-16 14:15:00,61.0,40.1,29.85,North,0,0.0,0.0,46,0.00,,SKC,0.00,0.00,VWS V14.01,2013-02-16 13:15:00,
2013-02-16 14:20:00,61.9,40.9,29.85,North,0,0.0,0.0,46,0.00,,SKC,0.00,0.00,VWS V14.01,2013-02-16 13:20:00,
2013-02-16 14:25:00,62.2,40.7,29.85,North,0,0.0,0.0,45,0.00,,SKC,0.00,0.00,VWS V14.01,2013-02-16 13:25:00,
2013-02-16 14:30:00,62.6,40.4,29.85,North,0,0.0,0.0,44,0.00,,SKC,0.00,0.00,VWS V14.01,2013-02-16 13:30:00,
2013-02-16 14:35:00,62.8,40.6,29.85,North,0,0.0,0.0,44,0.00,,SKC,0.00,0.00,VWS V14.01,2013-02-16 13:35:00,
2013-02-16 14:40:00,62.4,40.2,29.85,North,0,0.0,0.0,44,0.00,,SKC,0.00,0.00,VWS V14.01,2013-02-16 13:40:00,
2013-02-16 14:45:00,62.6,40.4,29.85,North,0,0.0,0.0,44,0.00,,SKC,0.00,0.00,VWS V14.01,2013-02-16 13:45:00,
2013-02-16 14:50:00,63.1,40.3,29.85,North,0,0.0,0.0,43,0.00,,SKC,0.00,0.00,VWS V14.01,2013-02-16 13:50:00,
2013-02-16 14:55:00,63.9,41.0,29.85,North,0,0.0,0.0,43,0.00,,SKC,0.00,0.00,VWS V14.01,2013-02-16 13:55:00,
2013-02-16 15:00:00,65.1,41.5,29.85,North,0,0.0,0.0,42,0.00,,SKC,0.00,0.00,VWS V14.01,2013-02-16 14:00:00,
2013-02-16 15:05:00,65.3,41.0,29.85,North,0,0.0,0.0,41,0.00,,SKC,0.00,0.00,VWS V14.01,2013-02-16 14:05:00,
2013-02-16 15:10:00,66.2,41.8,29.85,North,0,0.0,0.0,41,0.00,,SKC,0.00,0.00,VWS V14.01,2013-02-16 14:10:00,
2013-02-16 15:15:00,64.9,40.7,29.85,North,0,0.0,0.0,41,0.00,,SKC,0.00,0.00,VWS V14.01,2013-02-16 14:15:00,
2013-02-16 15:20:00,64.6,40.4,29.85,North,0,0.0,0.0,41,0.00,,SKC,0.00,0.00,VWS V14.01,2013-02-16 14:20:00,
2013-02-16 15:25:00,66.0,41.0,29.85,North,0,0.0,0.0,40,0.00,,SKC,0.00,0.00,VWS V14.01,2013-02-16 14:25:00,
2013-02-16 15:30:00,67.1,42.0,29.85,North,0,0.0,0.0,40,0.00,,SKC,0.00,0.00,VWS V14.01,2013-02-16 14:30:00,
2013-02-16 15:35:00,67.8,42.6,29.85,North,0,0.0,0.0,40,0.00,,SKC,0.00,0.00,VWS V14.01,2013-02-16 14:35:00,
2013-02-16 15:40:00,68.5,43.3,29.85,North,0,0.0,0.0,40,0.00,,SKC,0.00,0.00,VWS V14.01,2013-02-16 14:40:00,
2013-02-16 15:45:00,68.7,42.8,29.85,North,0,0.0,0.0,39,0.00,,SKC,0.00,0.00,VWS V14.01,2013-02-16 14:45:00,
2013-02-16 15:50:00,68.7,43.5,29.85,North,0,0.0,0.0,40,0.00,,SKC,0.00,0.00,VWS V14.01,2013-02-16 14:50:00,
2013-02-16 15:55:00,68.0,42.8,29.85,North,0,0.0,0.0,40,0.00,,SKC,0.00,0.00,VWS V14.01,2013-02-16 14:55:00,
2013-02-16 16:00:00,68.0,43.5,29.85,North,0,0.0,0.0,41,0.00,,SKC,0.00,0.00,VWS V14.01,2013-02-16 15:00:00,
2013-02-16 16:05:00,68.0,43.5,29.85,North,0,0.0,0.0,41,0.00,,SKC,0.00,0.00,VWS V14.01,2013-02-16 15:05:00,
2013-02-16 16:10:00,67.6,42.5,29.85,North,0,0.0,0.0,40,0.00,,SKC,0.00,0.00,VWS V14.01,2013-02-16 15:10:00,
2013-02-16 16:15:00,67.3,42.2,29.85,North,0,0.0,0.0,40,0.00,,SKC,0.00,0.00,VWS V14.01,2013-02-16 15:15:00,
2013-02-16 16:20:00,67.1,42.6,29.85,North,0,0.0,0.0,41,0.00,,SKC,0.00,0.00,VWS V14.01,2013-02-16 15:20:00,
2013-02-16 16:25:00,66.9,42.5,29.85,North,0,0.0,0.0,41,0.00,,SKC,0.00,0.00,VWS V14.01,2013-02-16 15:25:00,
2013-02-16 16:30:00,66.9,42.5,29.85,North,0,0.0,0.0,41,0.00,,SKC,0.00,0.00,VWS V14.01,2013-02-16 15:30:00,
2013-02-16 16:35:00,66.2,41.8,29.85,North,0,0.0,0.0,41,0.00,,SKC,0.00,0.00,VWS V14.01,2013-02-16 15:35:00,
2013-02-16 16:40:00,65.8,42.1,29.85,North,0,0.0,0.0,42,0.00,,SKC,0.00,0.00,VWS V14.01,2013-02-16 15:40:00,
2013-02-16 16:45:00,65.8,41.5,29.85,North,0,0.0,0.0,41,0.00,,SKC,0.00,0.00,VWS V14.01,2013-02-16 15:45:00,
2013-02-16 16:50:00,64.6,41.0,29.85,North,0,0.0,0.0,42,0.00,,SKC,0.00,0.00,VWS V14.01,2013-02-16 15:50:00,
2013-02-16 16:55:00,64.2,41.3,29.85,North,0,0.0,0.0,43,0.00,,SKC,0.00,0.00,VWS V14.01,2013-02-16 15:55:00,
2013-02-16 17:00:00,63.3,40.5,29.85,North,0,0.0,0.0,43,0.00,,SKC,0.00,0.00,VWS V14.01,2013-02-16 16:00:00,
2013-02-16 17:05:00,62.1,39.9,29.85,North,0,0.0,0.0,44,0.00,,SKC,0.00,0.00,VWS V14.01,2013-02-16 16:05:00,
2013-02-16 17:10:00,61.0,38.9,29.85,North,0,0.0,0.0,44,0.00,,SKC,0.00,0.00,VWS V14.01,2013-02-16 16:10:00,
2013-02-16 17:15:00,59.7,38.4,29.85,North,0,0.0,0.0,45,0.00,,SKC,0.00,0.00,VWS V14.01,2013-02-16 16:15:00,
2013-02-16 17:20:00,58.8,37.5,29.85,North,0,0.0,0.0,45,0.00,,SKC,0.00,0.00,VWS V14.01,2013-02-16 16:20:00,
2013-02-16 17:25:00,57.9,37.3,29.85,North,0,0.0,0.0,46,0.00,,SKC,0.00,0.00,VWS V14.01,2013-02-16 16:25:00,
2013-02-16 17:30:00,57.2,36.6,29.85,North,0,0.0,0.0,46,0.00,,SKC,0.00,0.00,VWS V14.01,2013-02-16 16:30:00,
2013-02-16 17:35:00,56.5,36.5,29.85,North,0,0.0,0.0,47,0.00,,SKC,0.00,0.00,VWS V14.01,2013-02-16 16:35:00,
2013-02-16 17:40:00,56.1,36.2,29.85,North,0,0.0,0.0,47,0.00,,SKC,0.00,0.00,VWS V14.01,2013-02-16 16:40:00,
2013-02-16 17:45:00,55.6,36.2,29.85,North,0,0.0,0.0,48,0.00,,SKC,0.00,0.00,VWS V14.01,2013-02-16 16:45:00,
2013-02-16 17:51:00,55.0,36.2,29.85,North,0,0.0,0.0,49,0.00,,SKC,0.00,0.00,VWS V14.01,2013-02-16 16:51:00,
2013-02-16 17:56:00,54.9,36.6,29.85,North,0,0.0,0.0,50,0.00,,SKC,0.00,0.00,VWS V14.01,2013-02-16 16:56:00,
2013-02-16 18:01:00,54.3,36.1,29.85,North,0,0.0,0.0,50,0.00,,SKC,0.00,0.00,VWS V14.01,2013-02-16 17:01:00,
2013-02-16 18:06:00,54.1,35.9,29.85,North,0,0.0,0.0,50,0.00,,SKC,0.00,0.00,VWS V14.01,2013-02-16 17:06:00,
2013-02-16 18:11:00,53.6,35.9,29.85,North,0,0.0,0.0,51,0.00,,SKC,0.00,0.00,VWS V14.01,2013-02-16 17:11:00,
2013-02-16 18:18:00,53.4,36.2,29.88,North,0,0.0,0.0,52,0.00,,SKC,0.00,0.00,VWS V14.01,2013-02-16 17:18:00,
2013-02-16 18:23:00,53.1,36.4,29.88,North,0,0.0,0.0,53,0.00,,SKC,0.00,0.00,VWS V14.01,2013-02-16 17:23:00,
2013-02-16 18:28:00,52.9,36.2,29.88,North,0,0.0,0.0,53,0.00,,SKC,0.00,0.00,VWS V14.01,2013-02-16 17:28:00,
2013-02-16 18:33:00,52.7,36.1,29.88,North,0,0.0,0.0,53,0.00,,SKC,0.00,0.00,VWS V14.01,2013-02-16 17:33:00,
2013-02-16 18:38:00,52.7,36.5,29.88,North,0,0.0,0.0,54,0.00,,SKC,0.00,0.00,VWS V14.01,2013-02-16 17:38:00,
2013-02-16 18:43:00,52.2,36.0,29.88,North,0,0.0,0.0,54,0.00,,SKC,0.00,0.00,VWS V14.01,2013-02-16 17:43:00,
2013-02-16 18:48:00,52.0,35.9,29.88,North,0,0.0,0.0,54,0.00,,SKC,0.00,0.00,VWS V14.01,2013-02-16 17:48:00,
2013-02-16 18:53:00,51.8,36.2,29.88,North,0,0.0,0.0,55,0.00,,SKC,0.00,0.00,VWS V14.01,2013-02-16 17:53:00,
2013-02-16 18:58:00,51.8,36.2,29.88,North,0,0.0,0.0,55,0.00,,SKC,0.00,0.00,VWS V14.01,2013-02-16 17:58:00,
2013-02-16 19:03:00,51.8,36.6,29.88,North,0,0.0,0.0,56,0.00,,SKC,0.00,0.00,VWS V14.01,2013-02-16 18:03:00,
2013-02-16 19:08:00,51.6,36.5,29.88,North,0,0.0,0.0,56,0.00,,SKC,0.00,0.00,VWS V14.01,2013-02-16 18:08:00,
2013-02-16 19:13:00,51.4,36.7,29.88,North,0,0.0,0.0,57,0.00,,SKC,0.00,0.00,VWS V14.01,2013-02-16 18:13:00,
2013-02-16 19:18:00,51.3,36.6,29.88,North,0,0.0,0.0,57,0.00,,SKC,0.00,0.00,VWS V14.01,2013-02-16 18:18:00,
2013-02-16 19:23:00,51.3,36.6,29.88,North,0,0.0,0.0,57,0.00,,SKC,0.00,0.00,VWS V14.01,2013-02-16 18:23:00,
2013-02-16 19:28:00,50.9,36.2,29.88,North,0,0.0,0.0,57,0.00,,SKC,0.00,0.00,VWS V14.01,2013-02-16 18:28:00,
2013-02-16 19:33:00,50.7,36.5,29.88,North,0,0.0,0.0,58,0.00,,SKC,0.00,0.00,VWS V14.01,2013-02-16 18:33:00,
2013-02-16 19:38:00,50.5,36.3,29.88,North,0,0.0,0.0,58,0.00,,SKC,0.00,0.00,VWS V14.01,2013-02-16 18:38:00,
2013-02-16 19:43:00,50.5,36.3,29.88,North,0,0.0,0.0,58,0.00,,SKC,0.00,0.00,VWS V14.01,2013-02-16 18:43:00,
2013-02-16 19:48:00,50.5,35.9,29.88,North,0,0.0,0.0,57,0.00,,SKC,0.00,0.00,VWS V14.01,2013-02-16 18:48:00,
2013-02-16 19:53:00,50.4,35.3,29.88,North,0,0.0,0.0,56,0.00,,SKC,0.00,0.00,VWS V14.01,2013-02-16 18:53:00,
2013-02-16 19:58:00,50.2,34.7,29.88,North,0,0.0,0.0,55,0.00,,SKC,0.00,0.00,VWS V14.01,2013-02-16 18:58:00,
2013-02-16 20:03:00,50.2,34.2,29.88,North,0,0.0,0.0,54,0.00,,SKC,0.00,0.00,VWS V14.01,2013-02-16 19:03:00,
2013-02-16 20:08:00,50.0,33.6,29.88,North,0,0.0,0.0,53,0.00,,SKC,0.00,0.00,VWS V14.01,2013-02-16 19:08:00,
2013-02-16 20:13:00,49.8,33.4,29.88,North,0,0.0,0.0,53,0.00,,SKC,0.00,0.00,VWS V14.01,2013-02-16 19:13:00,
2013-02-16 20:18:00,49.6,33.2,29.88,North,0,0.0,0.0,53,0.00,,SKC,0.00,0.00,VWS V14.01,2013-02-16 19:18:00,
2013-02-16 20:23:00,49.5,32.6,29.88,North,0,0.0,0.0,52,0.00,,SKC,0.00,0.00,VWS V14.01,2013-02-16 19:23:00,
2013-02-16 20:28:00,49.3,32.4,29.88,North,0,0.0,0.0,52,0.00,,SKC,0.00,0.00,VWS V14.01,2013-02-16 19:28:00,
2013-02-16 20:33:00,49.1,32.2,29.88,North,0,0.0,0.0,52,0.00,,SKC,0.00,0.00,VWS V14.01,2013-02-16 19:33:00,
2013-02-16 20:38:00,49.1,32.2,29.88,North,0,0.0,0.0,52,0.00,,SKC,0.00,0.00,VWS V14.01,2013-02-16 19:38:00,
2013-02-16 20:43:00,48.9,32.1,29.88,North,0,0.0,0.0,52,0.00,,SKC,0.00,0.00,VWS V14.01,2013-02-16 19:43:00,
2013-02-16 20:48:00,48.9,32.1,29.88,North,0,0.0,0.0,52,0.00,,SKC,0.00,0.00,VWS V14.01,2013-02-16 19:48:00,
2013-02-16 20:54:00,48.7,31.9,29.88,North,0,0.0,0.0,52,0.00,,SKC,0.00,0.00,VWS V14.01,2013-02-16 19:54:00,
2013-02-16 20:59:00,48.7,31.9,29.88,North,0,0.0,0.0,52,0.00,,SKC,0.00,0.00,VWS V14.01,2013-02-16 19:59:00,
2013-02-16 21:04:00,48.6,31.8,29.88,North,0,0.0,0.0,52,0.00,,SKC,0.00,0.00,VWS V14.01,2013-02-16 20:04:00,
2013-02-16 21:09:00,48.6,31.8,29.88,North,0,0.0,0.0,52,0.00,,SKC,0.00,0.00,VWS V14.01,2013-02-16 20:09:00,
2013-02-16 21:14:00,48.4,31.6,29.91,North,0,0.0,0.0,52,0.00,,SKC,0.00,0.00,VWS V14.01,2013-02-16 20:14:00,
2013-02-16 21:19:00,48.4,31.6,29.91,North,0,0.0,0.0,52,0.00,,SKC,0.00,0.00,VWS V14.01,2013-02-16 20:19:00,
2013-02-16 21:24:00,48.2,31.4,29.91,North,0,0.0,0.0,52,0.00,,SKC,0.00,0.00,VWS V14.01,2013-02-16 20:24:00,
2013-02-16 21:29:00,48.0,31.7,29.88,North,0,0.0,0.0,53,0.00,,SKC,0.00,0.00,VWS V14.01,2013-02-16 20:29:00,
2013-02-16 21:34:00,47.8,31.5,29.88,North,0,0.0,0.0,53,0.00,,SKC,0.00,0.00,VWS V14.01,2013-02-16 20:34:00,
2013-02-16 21:39:00,47.8,31.5,29.88,North,0,0.0,0.0,53,0.00,,SKC,0.00,0.00,VWS V14.01,2013-02-16 20:39:00,
2013-02-16 21:44:00,47.7,31.4,29.91,North,0,0.0,0.0,53,0.00,,SKC,0.00,0.00,VWS V14.01,2013-02-16 20:44:00,
2013-02-16 21:49:00,47.5,31.2,29.91,North,0,0.0,0.0,53,0.00,,SKC,0.00,0.00,VWS V14.01,2013-02-16 20:49:00,
2013-02-16 21:54:00,47.3,31.0,29.91,North,0,0.0,0.0,53,0.00,,SKC,0.00,0.00,VWS V14.01,2013-02-16 20:54:00,
2013-02-16 21:59:00,47.3,31.0,29.91,North,0,0.0,0.0,53,0.00,,SKC,0.00,0.00,VWS V14.01,2013-02-16 20:59:00,
2013-02-16 22:04:00,47.1,30.9,29.91,North,0,0.0,0.0,53,0.00,,SKC,0.00,0.00,VWS V14.01,2013-02-16 21:04:00,
2013-02-16 22:09:00,47.1,30.9,29.91,North,0,0.0,0.0,53,0.00,,SKC,0.00,0.00,VWS V14.01,2013-02-16 21:09:00,
2013-02-16 22:14:00,46.9,30.7,29.88,North,0,0.0,0.0,53,0.00,,SKC,0.00,0.00,VWS V14.01,2013-02-16 21:14:00,
2013-02-16 22:19:00,46.8,30.5,29.88,North,0,0.0,0.0,53,0.00,,SKC,0.00,0.00,VWS V14.01,2013-02-16 21:19:00,
2013-02-16 22:24:00,46.8,30.5,29.88,North,0,0.0,0.0,53,0.00,,SKC,0.00,0.00,VWS V14.01,2013-02-16 21:24:00,
2013-02-16 22:29:00,46.8,30.5,29.91,North,0,0.0,0.0,53,0.00,,SKC,0.00,0.00,VWS V14.01,2013-02-16 21:29:00,
2013-02-16 22:34:00,46.6,30.4,29.91,North,0,0.0,0.0,53,0.00,,SKC,0.00,0.00,VWS V14.01,2013-02-16 21:34:00,
2013-02-16 22:39:00,46.4,30.2,29.91,North,0,0.0,0.0,53,0.00,,SKC,0.00,0.00,VWS V14.01,2013-02-16 21:39:00,
2013-02-16 22:44:00,46.4,30.7,29.88,North,0,0.0,0.0,54,0.00,,SKC,0.00,0.00,VWS V14.01,2013-02-16 21:44:00,
2013-02-16 22:49:00,46.4,30.7,29.88,North,0,0.0,0.0,54,0.00,,SKC,0.00,0.00,VWS V14.01,2013-02-16 21:49:00,
2013-02-16 22:54:00,46.2,30.5,29.88,North,0,0.0,0.0,54,0.00,,SKC,0.00,0.00,VWS V14.01,2013-02-16 21:54:00,
2013-02-16 22:59:00,46.2,30.5,29.88,North,0,0.0,0.0,54,0.00,,SKC,0.00,0.00,VWS V14.01,2013-02-16 21:59:00,
2013-02-16 23:04:00,46.0,30.3,29.88,North,0,0.0,0.0,54,0.00,,SKC,0.00,0.00,VWS V14.01,2013-02-16 22:04:00,
2013-02-16 23:09:00,45.9,30.2,29.88,North,0,0.0,0.0,54,0.00,,SKC,0.00,0.00,VWS V14.01,2013-02-16 22:09:00,
2013-02-16 23:14:00,45.9,30.2,29.88,North,0,0.0,0.0,54,0.00,,SKC,0.00,0.00,VWS V14.01,2013-02-16 22:14:00,
2013-02-16 23:19:00,45.7,30.0,29.88,North,0,0.0,0.0,54,0.00,,SKC,0.00,0.00,VWS V14.01,2013-02-16 22:19:00,
2013-02-16 23:24:00,45.5,29.8,29.88,North,0,0.0,0.0,54,0.00,,SKC,0.00,0.00,VWS V14.01,2013-02-16 22:24:00,
2013-02-16 23:29:00,45.3,30.1,29.88,North,0,0.0,0.0,55,0.00,,SKC,0.00,0.00,VWS V14.01,2013-02-16 22:29:00,
2013-02-16 23:34:00,45.1,30.0,29.88,North,0,0.0,0.0,55,0.00,,SKC,0.00,0.00,VWS V14.01,2013-02-16 22:34:00,
2013-02-16 23:39:00,45.1,30.0,29.88,North,0,0.0,0.0,55,0.00,,SKC,0.00,0.00,VWS V14.01,2013-02-16 22:39:00,
2013-02-16 23:44:00,45.0,29.8,29.88,North,0,0.0,0.0,55,0.00,,SKC,0.00,0.00,VWS V14.01,2013-02-16 22:44:00,
2013-02-16 23:49:00,45.0,29.8,29.88,North,0,0.0,0.0,55,0.00,,SKC,0.00,0.00,VWS V14.01,2013-02-16 22:49:00,
2013-02-16 23:54:00,44.8,29.6,29.88,North,0,0.0,0.0,55,0.00,,SKC,0.00,0.00,VWS V14.01,2013-02-16 22:54:00,
2013-02-16 23:59:00,44.4,29.7,29.88,North,0,0.0,0.0,56,0.00,,SKC,0.00,0.00,VWS V14.01,2013-02-16 22:59:00,